createdAt,value
2023-02-09T00:02:19.418Z,115.10
2023-02-09T00:05:22.009Z,129.53
2023-02-09T00:08:24.218Z,104.17
2023-02-09T00:11:47.717Z,93.23
2023-02-09T00:14:49.780Z,95.07
2023-02-09T00:17:52.029Z,81.53
2023-02-09T00:21:06.499Z,86.93
2023-02-09T00:24:12.546Z,84.87
2023-02-09T00:27:14.547Z,88.13
2023-02-09T00:30:16.895Z,96.70
2023-02-09T00:33:19.005Z,92.50
2023-02-09T00:36:21.352Z,97.90
2023-02-09T00:39:23.439Z,95.97
2023-02-09T00:42:25.711Z,97.27
2023-02-09T00:45:27.835Z,97.20
2023-02-09T00:48:30.146Z,95.20
2023-02-09T00:51:32.175Z,98.37
2023-02-09T00:54:34.458Z,90.37
2023-02-09T00:57:36.499Z,103.07
2023-02-09T01:00:39.096Z,106.97
2023-02-09T01:03:42.347Z,95.40
2023-02-09T01:06:44.758Z,101.87
2023-02-09T01:09:46.894Z,101.30
2023-02-09T01:12:49.274Z,97.30
2023-02-09T01:15:51.847Z,92.17
2023-02-09T01:18:54.919Z,88.83
2023-02-09T01:21:56.984Z,90.27
2023-02-09T01:24:59.293Z,90.43
2023-02-09T01:28:01.303Z,90.83
2023-02-09T01:31:05.195Z,92.50
2023-02-09T01:34:07.454Z,87.10
2023-02-09T01:37:09.788Z,85.90
2023-02-09T01:40:12.253Z,93.93
2023-02-09T01:43:14.568Z,85.47
2023-02-09T01:46:16.623Z,91.53
2023-02-09T01:49:26.401Z,90.03
2023-02-09T01:52:31.284Z,94.07
2023-02-09T01:55:38.227Z,102.63
2023-02-09T01:58:40.332Z,88.17
2023-02-09T02:01:43.928Z,85.23
2023-02-09T02:04:46.515Z,84.03
2023-02-09T02:08:14.680Z,93.03
2023-02-09T02:11:17.330Z,92.63
2023-02-09T02:14:37.309Z,88.60
2023-02-09T02:18:07.129Z,92.33
2023-02-09T02:21:42.079Z,107.50
2023-02-09T02:24:46.940Z,93.37
2023-02-09T02:28:14.667Z,90.07
2023-02-09T02:31:46.229Z,89.03
2023-02-09T02:35:21.673Z,79.50
2023-02-09T02:38:38.310Z,88.10
2023-02-09T02:42:18.266Z,84.93
2023-02-09T02:45:44.831Z,92.17
2023-02-09T02:48:57.190Z,91.40
2023-02-09T02:52:03.875Z,95.17
2023-02-09T02:55:10.861Z,95.63
2023-02-09T02:58:15.223Z,101.00
2023-02-09T03:01:22.728Z,94.00
2023-02-09T03:04:28.265Z,97.87
2023-02-09T03:07:30.555Z,93.90
2023-02-09T03:10:39.851Z,100.80
2023-02-09T03:14:03.293Z,103.13
2023-02-09T03:17:30.120Z,102.87
2023-02-09T03:20:43.977Z,104.17
2023-02-09T03:23:54.714Z,104.60
2023-02-09T03:27:09.087Z,90.60
2023-02-09T03:30:14.934Z,98.93
2023-02-09T03:33:23.322Z,93.47
2023-02-09T03:36:31.491Z,96.10
2023-02-09T03:39:33.876Z,92.57
2023-02-09T03:42:35.973Z,107.20
2023-02-09T03:45:39.026Z,105.03
2023-02-09T03:48:41.098Z,102.07
2023-02-09T03:51:43.420Z,98.30
2023-02-09T03:54:45.569Z,97.43
2023-02-09T03:57:48.029Z,98.83
2023-02-09T04:00:50.097Z,97.87
2023-02-09T04:03:52.407Z,106.37
2023-02-09T04:06:56.086Z,98.27
2023-02-09T04:09:58.425Z,97.70
2023-02-09T04:13:00.388Z,95.57
2023-02-09T04:16:02.847Z,97.40
2023-02-09T04:19:05.766Z,92.67
2023-02-09T04:22:08.312Z,93.60
2023-02-09T04:25:10.628Z,107.70
2023-02-09T04:28:13.011Z,98.27
2023-02-09T04:31:15.732Z,96.27
2023-02-09T04:34:18.154Z,100.93
2023-02-09T04:37:20.116Z,104.07
2023-02-09T04:40:22.491Z,94.10
2023-02-09T04:43:24.547Z,105.93
2023-02-09T04:46:26.931Z,103.13
2023-02-09T04:49:28.956Z,119.20
2023-02-09T04:52:31.515Z,102.10
2023-02-09T04:55:36.368Z,92.50
2023-02-09T04:58:57.755Z,93.37
2023-02-09T05:01:59.866Z,92.33
2023-02-09T05:05:02.231Z,89.23
2023-02-09T05:08:04.304Z,90.93
2023-02-09T05:11:06.784Z,91.77
2023-02-09T05:14:08.801Z,95.43
2023-02-09T05:17:11.065Z,87.10
2023-02-09T05:20:13.097Z,92.80
2023-02-09T05:23:15.541Z,96.53
2023-02-09T05:26:17.808Z,89.83
2023-02-09T05:29:22.007Z,91.13
2023-02-09T05:32:24.540Z,88.00
2023-02-09T05:35:26.989Z,88.70
2023-02-09T05:38:28.981Z,94.03
2023-02-09T05:41:49.970Z,88.37
2023-02-09T05:44:53.467Z,88.57
2023-02-09T05:47:55.995Z,89.83
2023-02-09T05:50:58.015Z,90.90
2023-02-09T05:54:00.335Z,82.73
2023-02-09T05:57:02.447Z,85.33
2023-02-09T06:00:06.143Z,90.00
2023-02-09T06:03:08.284Z,85.23
2023-02-09T06:06:10.605Z,89.33
2023-02-09T06:09:12.801Z,88.37
2023-02-09T06:12:15.218Z,91.67
2023-02-09T06:15:17.321Z,94.97
2023-02-09T06:18:19.600Z,81.33
2023-02-09T06:21:21.675Z,85.03
2023-02-09T06:24:24.067Z,83.03
2023-02-09T06:27:26.294Z,84.43
2023-02-09T06:30:28.625Z,90.57
2023-02-09T06:33:30.946Z,84.50
2023-02-09T06:36:33.411Z,82.47
2023-02-09T06:39:35.418Z,84.27
2023-02-09T06:42:43.997Z,81.60
2023-02-09T06:45:46.177Z,88.97
2023-02-09T06:48:48.464Z,92.37
2023-02-09T06:51:50.801Z,84.37
2023-02-09T06:54:53.207Z,88.80
2023-02-09T06:57:55.642Z,81.37
2023-02-09T07:01:10.813Z,92.90
2023-02-09T07:04:12.813Z,82.97
2023-02-09T07:07:15.828Z,84.83
2023-02-09T07:10:21.239Z,75.53
2023-02-09T07:13:23.559Z,82.50
2023-02-09T07:16:25.688Z,87.43
2023-02-09T07:19:28.092Z,83.17
2023-02-09T07:22:30.927Z,85.40
2023-02-09T07:25:34.507Z,84.40
2023-02-09T07:28:37.664Z,81.53
2023-02-09T07:31:40.058Z,81.07
2023-02-09T07:34:42.205Z,86.33
2023-02-09T07:37:44.551Z,80.23
2023-02-09T07:40:47.870Z,83.07
2023-02-09T07:43:50.190Z,82.10
2023-02-09T07:46:52.350Z,83.67
2023-02-09T07:49:54.643Z,81.73
2023-02-09T07:52:59.089Z,74.37
2023-02-09T07:56:01.488Z,92.10
2023-02-09T07:59:03.509Z,84.70
2023-02-09T08:02:07.021Z,87.83
2023-02-09T08:05:14.372Z,83.50
2023-02-09T08:08:16.690Z,77.80
2023-02-09T08:11:26.179Z,85.40
2023-02-09T08:14:50.214Z,80.73
2023-02-09T08:17:57.202Z,82.20
2023-02-09T08:21:00.883Z,80.80
2023-02-09T08:24:05.535Z,76.30
2023-02-09T08:27:07.852Z,90.13
2023-02-09T08:30:11.480Z,78.80
2023-02-09T08:33:15.195Z,77.20
2023-02-09T08:36:18.674Z,75.63
2023-02-09T08:39:21.378Z,70.53
2023-02-09T08:42:23.566Z,73.20
2023-02-09T08:45:28.773Z,67.93
2023-02-09T08:48:33.233Z,74.70
2023-02-09T08:51:36.546Z,202.20
2023-02-09T08:54:38.539Z,81.00
2023-02-09T08:57:44.336Z,73.87
2023-02-09T09:00:46.929Z,87.17
2023-02-09T09:03:49.500Z,81.27
2023-02-09T09:06:51.606Z,77.50
2023-02-09T09:09:53.861Z,72.70
2023-02-09T09:12:56.012Z,101.30
2023-02-09T09:15:58.288Z,79.90
2023-02-09T09:19:00.517Z,63.90
2023-02-09T09:22:03.633Z,70.03
2023-02-09T09:25:06.636Z,70.60
2023-02-09T09:28:10.468Z,68.17
2023-02-09T09:31:16.946Z,53.03
2023-02-09T09:34:19.507Z,61.47
2023-02-09T09:37:23.505Z,52.17
2023-02-09T09:40:31.498Z,58.37
2023-02-09T09:43:37.054Z,57.43
2023-02-09T09:46:45.893Z,51.50
2023-02-09T09:49:48.687Z,45.70
2023-02-09T09:53:17.095Z,46.60
2023-02-09T09:56:21.356Z,40.50
2023-02-09T09:59:30.537Z,46.43
2023-02-09T10:02:34.441Z,44.57
2023-02-09T10:05:40.025Z,48.90
2023-02-09T10:08:57.639Z,40.13
2023-02-09T10:12:36.073Z,37.10
2023-02-09T10:15:38.216Z,41.43
2023-02-09T10:18:40.886Z,40.73
2023-02-09T10:21:42.895Z,40.10
2023-02-09T10:24:45.286Z,42.07
2023-02-09T10:27:47.413Z,40.13
2023-02-09T10:30:53.184Z,68.33
2023-02-09T10:34:03.287Z,51.13
2023-02-09T10:37:22.481Z,37.33
2023-02-09T10:40:30.876Z,38.27
2023-02-09T10:43:35.227Z,37.17
2023-02-09T10:46:38.770Z,52.90
2023-02-09T10:49:41.175Z,43.63
2023-02-09T10:53:01.929Z,37.03
2023-02-09T10:56:09.902Z,39.03
2023-02-09T10:59:20.639Z,37.33
2023-02-09T11:02:38.260Z,39.77
2023-02-09T11:05:40.861Z,34.13
2023-02-09T11:09:13.655Z,35.97
2023-02-09T11:12:15.743Z,40.23
2023-02-09T11:15:26.696Z,42.00
2023-02-09T11:18:34.310Z,51.20
2023-02-09T11:21:53.292Z,47.47
2023-02-09T11:25:09.604Z,37.43
2023-02-09T11:28:47.481Z,41.10
2023-02-09T11:31:59.249Z,41.97
2023-02-09T11:35:09.481Z,44.70
2023-02-09T11:38:17.302Z,32.87
2023-02-09T11:42:03.331Z,37.80
2023-02-09T11:45:17.141Z,46.03
2023-02-09T11:48:35.065Z,39.03
2023-02-09T11:51:40.268Z,36.97
2023-02-09T11:54:47.621Z,34.23
2023-02-09T11:57:56.946Z,34.93
2023-02-09T12:01:23.301Z,42.00
2023-02-09T12:04:59.015Z,54.47
2023-02-09T12:08:19.445Z,32.90
2023-02-09T12:11:57.365Z,35.53
2023-02-09T12:15:19.456Z,35.63
2023-02-09T12:18:26.271Z,33.13
2023-02-09T12:21:38.425Z,37.67
2023-02-09T12:24:40.891Z,45.83
2023-02-09T12:28:03.976Z,38.50
2023-02-09T12:31:07.976Z,35.97
2023-02-09T12:34:13.588Z,59.37
2023-02-09T12:37:30.344Z,37.10
2023-02-09T12:40:37.684Z,44.37
2023-02-09T12:43:40.671Z,39.57
2023-02-09T12:46:47.775Z,38.60
2023-02-09T12:50:01.850Z,33.57
2023-02-09T12:53:22.665Z,32.77
2023-02-09T12:56:30.905Z,40.90
2023-02-09T12:59:33.238Z,36.87
2023-02-09T13:02:46.284Z,35.13
2023-02-09T13:05:50.114Z,29.67
2023-02-09T13:08:54.740Z,28.33
2023-02-09T13:12:06.100Z,38.47
2023-02-09T13:15:21.447Z,33.27
2023-02-09T13:18:29.458Z,25.93
2023-02-09T13:21:53.578Z,25.13
2023-02-09T13:25:29.900Z,29.87
2023-02-09T13:28:32.201Z,31.33
2023-02-09T13:31:41.114Z,26.07
2023-02-09T13:35:12.614Z,28.37
2023-02-09T13:38:21.496Z,28.07
2023-02-09T13:41:34.699Z,27.53
2023-02-09T13:44:43.347Z,33.03
2023-02-09T13:47:45.759Z,33.23
2023-02-09T13:50:48.657Z,48.63
2023-02-09T13:54:01.913Z,43.80
2023-02-09T13:57:18.767Z,45.77
2023-02-09T14:00:28.799Z,30.23
2023-02-09T14:03:56.658Z,26.87
2023-02-09T14:07:08.492Z,30.40
2023-02-09T14:10:16.763Z,23.67
2023-02-09T14:13:22.312Z,23.67
2023-02-09T14:16:27.875Z,23.00
2023-02-09T14:19:34.821Z,55.80
2023-02-09T14:22:39.554Z,38.50
2023-02-09T14:25:42.185Z,30.97
2023-02-09T14:29:12.439Z,29.83
2023-02-09T14:32:32.910Z,23.33
2023-02-09T14:35:41.402Z,28.47
2023-02-09T14:38:43.717Z,27.27
2023-02-09T14:42:09.323Z,117.30
2023-02-09T14:45:14.367Z,59.80
2023-02-09T14:48:28.216Z,50.97
2023-02-09T14:51:30.306Z,40.53
2023-02-09T14:54:44.802Z,34.43
2023-02-09T14:57:47.551Z,36.37
2023-02-09T15:00:52.589Z,30.80
2023-02-09T15:03:54.617Z,22.53
2023-02-09T15:07:02.993Z,25.60
2023-02-09T15:10:27.374Z,24.83
2023-02-09T15:13:33.046Z,126.40
2023-02-09T15:16:35.081Z,45.67
2023-02-09T15:19:37.313Z,51.17
2023-02-09T15:22:39.403Z,44.03
2023-02-09T15:25:42.100Z,52.57
2023-02-09T15:28:44.236Z,70.00
2023-02-09T15:31:46.604Z,99.70
2023-02-09T15:34:48.777Z,82.53
2023-02-09T15:37:59.760Z,82.00
2023-02-09T15:41:20.597Z,71.57
2023-02-09T15:44:41.315Z,69.27
2023-02-09T15:47:48.968Z,69.97
2023-02-09T15:50:51.996Z,61.13
2023-02-09T15:53:55.948Z,65.23
2023-02-09T15:56:59.318Z,66.43
2023-02-09T16:00:01.845Z,68.60
2023-02-09T16:03:18.589Z,71.70
2023-02-09T16:06:24.758Z,81.53
2023-02-09T16:09:30.920Z,76.40
2023-02-09T16:12:32.899Z,69.03
2023-02-09T16:15:35.208Z,65.97
2023-02-09T16:18:37.242Z,70.53
2023-02-09T16:21:43.529Z,84.43
2023-02-09T16:24:46.304Z,78.03
2023-02-09T16:27:49.953Z,100.63
2023-02-09T16:30:54.636Z,120.43
2023-02-09T16:33:57.018Z,190.33
2023-02-09T16:36:59.833Z,139.67
2023-02-09T16:40:02.426Z,134.67
2023-02-09T16:43:10.074Z,139.80
2023-02-09T16:46:12.682Z,186.53
2023-02-09T16:49:26.707Z,128.17
2023-02-09T16:52:30.367Z,156.57
2023-02-09T16:55:35.506Z,106.33
2023-02-09T16:58:39.618Z,108.47
2023-02-09T17:01:41.688Z,100.60
2023-02-09T17:04:45.549Z,92.27
2023-02-09T17:07:55.513Z,91.23
2023-02-09T17:10:59.076Z,85.60
2023-02-09T17:14:01.051Z,148.57
2023-02-09T17:17:03.695Z,132.73
2023-02-09T17:20:06.064Z,160.80
2023-02-09T17:23:14.085Z,179.20
2023-02-09T17:26:16.099Z,175.80
2023-02-09T17:29:21.988Z,172.13
2023-02-09T17:32:24.036Z,151.40
2023-02-09T17:35:52.925Z,129.27
2023-02-09T17:38:48.559Z,132.70
2023-02-09T17:41:51.057Z,127.13
2023-02-09T17:44:53.101Z,144.13
2023-02-09T17:47:57.418Z,152.20
2023-02-09T17:51:00.578Z,175.17
2023-02-09T17:54:03.912Z,165.67
2023-02-09T17:57:05.968Z,206.93
2023-02-09T18:00:08.970Z,164.97
2023-02-09T18:03:17.466Z,161.00
2023-02-09T18:06:22.637Z,160.07
2023-02-09T18:09:24.633Z,278.47
2023-02-09T18:12:27.531Z,253.43
2023-02-09T18:15:35.015Z,214.87
2023-02-09T18:18:37.326Z,215.77
2023-02-09T18:21:46.491Z,231.47
2023-02-09T18:24:49.189Z,178.43
2023-02-09T18:27:53.006Z,175.77
2023-02-09T18:30:55.539Z,190.70
2023-02-09T18:33:57.550Z,181.60
2023-02-09T18:37:00.007Z,166.80
2023-02-09T18:40:02.032Z,179.40
2023-02-09T18:43:06.131Z,140.10
2023-02-09T18:46:08.257Z,122.27
2023-02-09T18:49:12.694Z,111.33
2023-02-09T18:52:17.117Z,99.37
2023-02-09T18:55:19.812Z,112.30
2023-02-09T18:58:21.842Z,260.80
2023-02-09T19:01:24.694Z,233.80
2023-02-09T19:04:26.786Z,124.23
2023-02-09T19:07:30.984Z,107.37
2023-02-09T19:10:33.335Z,94.47
2023-02-09T19:13:35.963Z,86.33
2023-02-09T19:16:38.139Z,87.97
2023-02-09T19:19:40.910Z,102.10
2023-02-09T19:22:42.900Z,126.73
2023-02-09T19:25:45.455Z,128.57
2023-02-09T19:28:48.464Z,96.73
2023-02-09T19:31:50.737Z,80.87
2023-02-09T19:34:52.811Z,87.87
2023-02-09T19:37:57.649Z,112.37
2023-02-09T19:41:10.376Z,100.67
2023-02-09T19:44:13.284Z,78.73
2023-02-09T19:47:15.801Z,66.20
2023-02-09T19:50:18.250Z,61.23
2023-02-09T19:53:20.229Z,71.07
2023-02-09T19:56:23.546Z,60.97
2023-02-09T19:59:25.710Z,67.13
2023-02-09T20:02:28.004Z,68.13
2023-02-09T20:05:30.707Z,60.80
2023-02-09T20:08:34.655Z,59.63
2023-02-09T20:11:36.881Z,63.13
2023-02-09T20:14:48.714Z,80.33
2023-02-09T20:17:50.855Z,78.90
2023-02-09T20:20:53.222Z,55.30
2023-02-09T20:23:56.817Z,49.13
2023-02-09T20:26:59.054Z,56.20
2023-02-09T20:30:07.295Z,43.03
2023-02-09T20:33:10.292Z,48.67
2023-02-09T20:36:12.469Z,64.17
2023-02-09T20:39:16.454Z,63.30
2023-02-09T20:42:37.025Z,66.97
2023-02-09T20:45:58.497Z,52.43
2023-02-09T20:49:00.825Z,53.03
2023-02-09T20:52:03.178Z,46.20
2023-02-09T20:55:05.617Z,67.17
2023-02-09T20:58:09.260Z,47.03
2023-02-09T21:01:11.450Z,66.53
2023-02-09T21:04:13.846Z,56.57
2023-02-09T21:07:16.661Z,51.47
2023-02-09T21:10:19.038Z,49.30
2023-02-09T21:13:21.053Z,43.53
2023-02-09T21:16:25.465Z,40.73
2023-02-09T21:19:27.758Z,35.70
2023-02-09T21:22:30.011Z,37.17
2023-02-09T21:25:31.985Z,32.50
2023-02-09T21:28:35.941Z,35.80
2023-02-09T21:31:38.481Z,39.83
2023-02-09T21:34:42.346Z,41.80
2023-02-09T21:37:44.523Z,33.17
2023-02-09T21:40:47.269Z,30.53
2023-02-09T21:43:49.450Z,37.87
2023-02-09T21:46:52.087Z,33.23
2023-02-09T21:49:54.206Z,40.33
2023-02-09T21:52:56.595Z,34.87
2023-02-09T21:55:58.553Z,38.00
2023-02-09T21:59:00.832Z,32.50
2023-02-09T22:02:03.480Z,34.13
2023-02-09T22:05:06.711Z,37.53
2023-02-09T22:08:08.784Z,39.13
2023-02-09T22:11:11.106Z,37.37
2023-02-09T22:14:13.162Z,37.87
2023-02-09T22:17:15.593Z,41.13
2023-02-09T22:20:17.710Z,33.33
2023-02-09T22:23:20.252Z,35.57
2023-02-09T22:26:22.423Z,32.53
2023-02-09T22:29:24.916Z,38.10
2023-02-09T22:32:26.988Z,49.53
2023-02-09T22:35:30.538Z,39.33
2023-02-09T22:38:33.103Z,41.80
2023-02-09T22:41:36.775Z,41.63
2023-02-09T22:44:38.779Z,41.23
2023-02-09T22:47:41.097Z,42.50
2023-02-09T22:50:43.066Z,43.40
2023-02-09T22:53:45.596Z,38.30
2023-02-09T22:56:47.902Z,40.57
2023-02-09T22:59:50.147Z,41.90
2023-02-09T23:02:53.730Z,44.93
2023-02-09T23:05:56.158Z,40.53
2023-02-09T23:09:01.144Z,43.90
2023-02-09T23:12:03.534Z,39.10
2023-02-09T23:15:05.978Z,40.73
2023-02-09T23:18:08.232Z,37.17
2023-02-09T23:21:10.848Z,38.37
2023-02-09T23:24:15.416Z,37.80
2023-02-09T23:27:18.442Z,35.07
2023-02-09T23:30:20.900Z,39.47
2023-02-09T23:33:23.306Z,37.30
2023-02-09T23:36:29.594Z,36.17
2023-02-09T23:39:31.740Z,37.23
2023-02-09T23:42:34.028Z,39.30
2023-02-09T23:45:36.085Z,35.63
2023-02-09T23:48:38.591Z,39.23
2023-02-09T23:51:40.751Z,35.87
2023-02-09T23:54:43.109Z,32.43
2023-02-09T23:57:45.195Z,31.70
